sensor_id;sensor_type;location;lat;lon;timestamp;pressure;altitude;pressure_sealevel;temperature;humidity
69911;BME280;63555;49.920;17.868;2023-03-18T00:00:35;98808.75;;;-2.33;58.88
69911;BME280;63555;49.920;17.868;2023-03-18T00:05:35;98810.56;;;-2.37;59.29
69911;BME280;63555;49.920;17.868;2023-03-18T00:10:35;98811.53;;;-2.42;59.16
69911;BME280;63555;49.920;17.868;2023-03-18T00:15:36;98803.88;;;-2.45;59.17
69911;BME280;63555;49.920;17.868;2023-03-18T00:20:36;98810.94;;;-2.53;59.41
69911;BME280;63555;49.920;17.868;2023-03-18T00:25:41;98812.91;;;-2.66;59.63
69911;BME280;63555;49.920;17.868;2023-03-18T00:30:42;98805.34;;;-2.74;60.33
69911;BME280;63555;49.920;17.868;2023-03-18T00:35:43;98800.31;;;-2.80;60.19
69911;BME280;63555;49.920;17.868;2023-03-18T00:40:48;98796.09;;;-2.84;60.60
69911;BME280;63555;49.920;17.868;2023-03-18T00:46:14;98791.03;;;-2.89;60.58
69911;BME280;63555;49.920;17.868;2023-03-18T00:51:16;98785.94;;;-2.92;60.85
69911;BME280;63555;49.920;17.868;2023-03-18T00:56:18;98786.81;;;-2.93;60.81
69911;BME280;63555;49.920;17.868;2023-03-18T01:01:20;98780.00;;;-2.95;61.43
69911;BME280;63555;49.920;17.868;2023-03-18T01:06:23;98769.66;;;-2.95;61.02
69911;BME280;63555;49.920;17.868;2023-03-18T01:11:24;98766.34;;;-3.00;61.52
69911;BME280;63555;49.920;17.868;2023-03-18T01:16:25;98763.00;;;-3.05;61.53
69911;BME280;63555;49.920;17.868;2023-03-18T01:21:26;98763.06;;;-3.08;61.99
69911;BME280;63555;49.920;17.868;2023-03-18T01:26:27;98764.69;;;-3.03;61.82
69911;BME280;63555;49.920;17.868;2023-03-18T01:31:27;98767.16;;;-2.98;61.91
69911;BME280;63555;49.920;17.868;2023-03-18T01:36:27;98762.09;;;-3.03;62.04
69911;BME280;63555;49.920;17.868;2023-03-18T01:41:28;98762.22;;;-3.09;61.84
69911;BME280;63555;49.920;17.868;2023-03-18T01:51:32;98750.56;;;-3.27;62.77
69911;BME280;63555;49.920;17.868;2023-03-18T01:56:34;98754.19;;;-3.35;63.01
69911;BME280;63555;49.920;17.868;2023-03-18T02:01:48;98753.34;;;-3.37;63.31
69911;BME280;63555;49.920;17.868;2023-03-18T02:06:50;98756.72;;;-3.34;63.41
69911;BME280;63555;49.920;17.868;2023-03-18T02:11:51;98761.84;;;-3.32;63.53
69911;BME280;63555;49.920;17.868;2023-03-18T02:17:14;98761.84;;;-3.32;63.44
69911;BME280;63555;49.920;17.868;2023-03-18T02:22:37;98762.78;;;-3.36;63.77
69911;BME280;63555;49.920;17.868;2023-03-18T02:27:41;98760.34;;;-3.42;63.68
69911;BME280;63555;49.920;17.868;2023-03-18T02:32:45;98766.38;;;-3.43;63.59
69911;BME280;63555;49.920;17.868;2023-03-18T02:37:47;98761.28;;;-3.46;64.17
69911;BME280;63555;49.920;17.868;2023-03-18T02:42:48;98758.63;;;-3.43;64.32
69911;BME280;63555;49.920;17.868;2023-03-18T02:47:48;98757.63;;;-3.36;64.23
69911;BME280;63555;49.920;17.868;2023-03-18T02:52:49;98759.19;;;-3.28;64.04
69911;BME280;63555;49.920;17.868;2023-03-18T02:57:50;98759.91;;;-3.21;64.27
69911;BME280;63555;49.920;17.868;2023-03-18T03:02:50;98751.22;;;-3.17;64.49
69911;BME280;63555;49.920;17.868;2023-03-18T03:07:51;98746.81;;;-3.12;64.13
69911;BME280;63555;49.920;17.868;2023-03-18T03:12:51;98741.59;;;-3.09;64.57
69911;BME280;63555;49.920;17.868;2023-03-18T03:17:52;98745.94;;;-3.11;64.75
69911;BME280;63555;49.920;17.868;2023-03-18T03:22:52;98749.31;;;-3.07;64.90
69911;BME280;63555;49.920;17.868;2023-03-18T03:27:53;98756.09;;;-3.03;64.87
69911;BME280;63555;49.920;17.868;2023-03-18T03:32:53;98751.69;;;-2.98;64.87
69911;BME280;63555;49.920;17.868;2023-03-18T03:37:54;98748.09;;;-2.91;64.72
69911;BME280;63555;49.920;17.868;2023-03-18T03:42:54;98748.97;;;-2.92;64.95
69911;BME280;63555;49.920;17.868;2023-03-18T03:47:55;98757.53;;;-2.90;64.90
69911;BME280;63555;49.920;17.868;2023-03-18T03:52:55;98756.63;;;-2.89;65.03
69911;BME280;63555;49.920;17.868;2023-03-18T03:57:56;98760.13;;;-2.92;65.09
69911;BME280;63555;49.920;17.868;2023-03-18T04:02:56;98753.38;;;-2.97;65.29
69911;BME280;63555;49.920;17.868;2023-03-18T04:07:57;98760.28;;;-2.98;65.50
69911;BME280;63555;49.920;17.868;2023-03-18T04:13:00;98754.31;;;-3.01;65.23
69911;BME280;63555;49.920;17.868;2023-03-18T04:18:01;98754.41;;;-3.04;65.59
69911;BME280;63555;49.920;17.868;2023-03-18T04:23:05;98757.03;;;-3.07;65.74
69911;BME280;63555;49.920;17.868;2023-03-18T04:28:07;98756.22;;;-3.09;65.68
69911;BME280;63555;49.920;17.868;2023-03-18T04:33:07;98764.91;;;-3.13;65.95
69911;BME280;63555;49.920;17.868;2023-03-18T04:38:09;98764.03;;;-3.12;65.83
69911;BME280;63555;49.920;17.868;2023-03-18T04:43:09;98770.97;;;-3.16;65.90
69911;BME280;63555;49.920;17.868;2023-03-18T04:48:10;98769.22;;;-3.14;65.70
69911;BME280;63555;49.920;17.868;2023-03-18T04:53:10;98774.44;;;-3.17;65.92
69911;BME280;63555;49.920;17.868;2023-03-18T04:58:11;98772.72;;;-3.18;66.22
69911;BME280;63555;49.920;17.868;2023-03-18T05:03:11;98772.66;;;-3.15;66.36
69911;BME280;63555;49.920;17.868;2023-03-18T05:08:12;98780.28;;;-3.09;66.83
69911;BME280;63555;49.920;17.868;2023-03-18T05:13:12;98786.19;;;-3.04;66.42
69911;BME280;63555;49.920;17.868;2023-03-18T05:18:12;98777.41;;;-2.95;66.42
69911;BME280;63555;49.920;17.868;2023-03-18T05:23:13;98789.03;;;-2.76;66.30
69911;BME280;63555;49.920;17.868;2023-03-18T05:28:13;98788.66;;;-2.58;66.12
69911;BME280;63555;49.920;17.868;2023-03-18T05:33:14;98781.16;;;-2.31;66.02
69911;BME280;63555;49.920;17.868;2023-03-18T05:38:14;98787.34;;;-2.03;65.89
69911;BME280;63555;49.920;17.868;2023-03-18T05:43:15;98791.53;;;-1.63;65.50
69911;BME280;63555;49.920;17.868;2023-03-18T05:48:15;98789.97;;;-1.07;65.56
69911;BME280;63555;49.920;17.868;2023-03-18T05:53:16;98793.31;;;-0.16;64.71
69911;BME280;63555;49.920;17.868;2023-03-18T05:58:17;98800.53;;;1.02;63.05
69911;BME280;63555;49.920;17.868;2023-03-18T06:03:18;98800.66;;;2.11;61.24
69911;BME280;63555;49.920;17.868;2023-03-18T06:08:18;98792.97;;;3.09;59.61
69911;BME280;63555;49.920;17.868;2023-03-18T06:13:19;98786.19;;;3.80;58.03
69911;BME280;63555;49.920;17.868;2023-03-18T06:18:19;98790.19;;;4.41;57.16
69911;BME280;63555;49.920;17.868;2023-03-18T06:23:19;98790.34;;;5.05;56.74
69911;BME280;63555;49.920;17.868;2023-03-18T06:28:20;98798.69;;;5.29;55.60
69911;BME280;63555;49.920;17.868;2023-03-18T06:33:21;98793.88;;;5.04;55.91
69911;BME280;63555;49.920;17.868;2023-03-18T06:38:21;98802.59;;;4.88;55.65
69911;BME280;63555;49.920;17.868;2023-03-18T06:43:21;98809.91;;;4.81;55.59
69911;BME280;63555;49.920;17.868;2023-03-18T06:48:22;98816.66;;;4.85;55.42
69911;BME280;63555;49.920;17.868;2023-03-18T06:53:22;98808.03;;;5.00;55.07
69911;BME280;63555;49.920;17.868;2023-03-18T06:58:23;98818.22;;;5.22;54.38
69911;BME280;63555;49.920;17.868;2023-03-18T07:03:23;98811.34;;;5.53;53.87
69911;BME280;63555;49.920;17.868;2023-03-18T07:08:25;98813.78;;;6.34;52.58
69911;BME280;63555;49.920;17.868;2023-03-18T07:13:25;98811.03;;;8.35;50.47
69911;BME280;63555;49.920;17.868;2023-03-18T07:18:26;98802.06;;;10.27;46.86
69911;BME280;63555;49.920;17.868;2023-03-18T07:23:26;98806.69;;;11.28;44.81
69911;BME280;63555;49.920;17.868;2023-03-18T07:28:27;98821.81;;;11.60;42.94
69911;BME280;63555;49.920;17.868;2023-03-18T07:33:27;98821.81;;;11.37;41.48
69911;BME280;63555;49.920;17.868;2023-03-18T07:38:28;98812.81;;;11.62;40.44
69911;BME280;63555;49.920;17.868;2023-03-18T07:43:28;98818.63;;;12.33;39.30
69911;BME280;63555;49.920;17.868;2023-03-18T07:48:29;98817.97;;;13.35;37.83
69911;BME280;63555;49.920;17.868;2023-03-18T07:53:29;98820.31;;;13.89;36.53
69911;BME280;63555;49.920;17.868;2023-03-18T07:58:30;98815.97;;;14.86;34.55
69911;BME280;63555;49.920;17.868;2023-03-18T08:03:30;98806.47;;;14.84;32.44
69911;BME280;63555;49.920;17.868;2023-03-18T08:08:31;98801.25;;;15.11;32.13
69911;BME280;63555;49.920;17.868;2023-03-18T08:13:31;98786.88;;;15.60;31.08
69911;BME280;63555;49.920;17.868;2023-03-18T08:18:31;98817.41;;;15.27;30.78
69911;BME280;63555;49.920;17.868;2023-03-18T08:23:32;98806.63;;;15.39;29.83
69911;BME280;63555;49.920;17.868;2023-03-18T08:28:32;98811.94;;;15.39;29.30
69911;BME280;63555;49.920;17.868;2023-03-18T08:33:33;98811.38;;;15.35;28.31
69911;BME280;63555;49.920;17.868;2023-03-18T08:38:33;98805.38;;;15.33;27.97
69911;BME280;63555;49.920;17.868;2023-03-18T08:43:34;98803.66;;;15.61;27.60
69911;BME280;63555;49.920;17.868;2023-03-18T08:48:34;98792.38;;;16.22;26.78
69911;BME280;63555;49.920;17.868;2023-03-18T08:53:36;98791.84;;;16.36;26.14
69911;BME280;63555;49.920;17.868;2023-03-18T08:58:36;98792.50;;;17.09;25.45
69911;BME280;63555;49.920;17.868;2023-03-18T09:03:37;98788.59;;;17.81;25.11
69911;BME280;63555;49.920;17.868;2023-03-18T09:08:37;98788.25;;;18.27;24.86
69911;BME280;63555;49.920;17.868;2023-03-18T09:13:38;98787.47;;;18.83;24.59
69911;BME280;63555;49.920;17.868;2023-03-18T09:18:39;98786.97;;;19.12;24.21
69911;BME280;63555;49.920;17.868;2023-03-18T09:23:39;98775.88;;;19.39;24.04
69911;BME280;63555;49.920;17.868;2023-03-18T09:28:40;98777.19;;;19.52;23.82
69911;BME280;63555;49.920;17.868;2023-03-18T09:33:42;98768.41;;;19.82;23.21
69911;BME280;63555;49.920;17.868;2023-03-18T09:38:42;98776.56;;;19.97;22.60
69911;BME280;63555;49.920;17.868;2023-03-18T09:59:42;98767.94;;;21.53;21.62
69911;BME280;63555;49.920;17.868;2023-03-18T10:04:57;98767.47;;;21.50;21.01
69911;BME280;63555;49.920;17.868;2023-03-18T10:10:08;98770.16;;;21.65;21.36
69911;BME280;63555;49.920;17.868;2023-03-18T10:15:17;98764.31;;;21.61;20.81
69911;BME280;63555;49.920;17.868;2023-03-18T10:36:24;98740.25;;;21.82;19.81
69911;BME280;63555;49.920;17.868;2023-03-18T10:41:32;98750.09;;;21.75;19.58
69911;BME280;63555;49.920;17.868;2023-03-18T10:46:34;98735.97;;;20.99;19.69
69911;BME280;63555;49.920;17.868;2023-03-18T10:56:55;98740.63;;;21.50;19.38
69911;BME280;63555;49.920;17.868;2023-03-18T11:02:04;98736.84;;;21.74;19.05
69911;BME280;63555;49.920;17.868;2023-03-18T11:07:20;98734.78;;;21.90;18.77
69911;BME280;63555;49.920;17.868;2023-03-18T11:12:25;98713.97;;;21.19;18.86
69911;BME280;63555;49.920;17.868;2023-03-18T11:17:30;98712.44;;;21.24;19.71
69911;BME280;63555;49.920;17.868;2023-03-18T11:22:31;98711.66;;;21.60;19.40
69911;BME280;63555;49.920;17.868;2023-03-18T11:27:36;98711.31;;;21.48;19.44
69911;BME280;63555;49.920;17.868;2023-03-18T11:32:49;98707.97;;;21.46;19.01
69911;BME280;63555;49.920;17.868;2023-03-18T11:37:51;98712.94;;;21.64;18.74
69911;BME280;63555;49.920;17.868;2023-03-18T11:42:59;98714.91;;;21.70;18.66
69911;BME280;63555;49.920;17.868;2023-03-18T11:48:01;98708.34;;;21.43;18.67
69911;BME280;63555;49.920;17.868;2023-03-18T12:40:23;98686.75;;;19.86;19.14
69911;BME280;63555;49.920;17.868;2023-03-18T12:45:35;98690.47;;;20.08;18.96
69911;BME280;63555;49.920;17.868;2023-03-18T12:50:41;98687.78;;;18.83;19.69
69911;BME280;63555;49.920;17.868;2023-03-18T12:55:49;98680.38;;;17.79;20.88
69911;BME280;63555;49.920;17.868;2023-03-18T13:01:14;98675.28;;;18.51;20.93
69911;BME280;63555;49.920;17.868;2023-03-18T13:16:40;98657.16;;;20.11;19.53
69911;BME280;63555;49.920;17.868;2023-03-18T13:21:45;98658.94;;;20.93;19.15
69911;BME280;63555;49.920;17.868;2023-03-18T13:27:17;98653.28;;;21.47;18.28
69911;BME280;63555;49.920;17.868;2023-03-18T13:42:29;98666.16;;;20.93;19.09
69911;BME280;63555;49.920;17.868;2023-03-18T13:47:33;98665.75;;;20.66;18.83
69911;BME280;63555;49.920;17.868;2023-03-18T13:52:42;98651.19;;;20.46;18.95
69911;BME280;63555;49.920;17.868;2023-03-18T13:57:54;98633.88;;;20.34;19.27
69911;BME280;63555;49.920;17.868;2023-03-18T14:03:14;98637.91;;;20.53;19.48
69911;BME280;63555;49.920;17.868;2023-03-18T14:08:43;98639.63;;;20.83;19.08
69911;BME280;63555;49.920;17.868;2023-03-18T14:13:58;98656.97;;;20.12;19.63
69911;BME280;63555;49.920;17.868;2023-03-18T14:19:15;98648.31;;;19.01;20.42
69911;BME280;63555;49.920;17.868;2023-03-18T14:29:23;98642.72;;;18.55;20.98
69911;BME280;63555;49.920;17.868;2023-03-18T14:34:31;98636.47;;;18.95;20.75
69911;BME280;63555;49.920;17.868;2023-03-18T14:39:46;98639.81;;;19.76;20.25
69911;BME280;63555;49.920;17.868;2023-03-18T14:45:29;98636.75;;;19.56;19.76
69911;BME280;63555;49.920;17.868;2023-03-18T14:50:38;98623.91;;;19.04;20.40
69911;BME280;63555;49.920;17.868;2023-03-18T14:55:41;98618.94;;;19.40;20.39
69911;BME280;63555;49.920;17.868;2023-03-18T15:00:43;98614.19;;;19.50;20.33
69911;BME280;63555;49.920;17.868;2023-03-18T15:05:44;98615.00;;;18.56;21.06
69911;BME280;63555;49.920;17.868;2023-03-18T15:10:47;98619.63;;;17.57;22.04
69911;BME280;63555;49.920;17.868;2023-03-18T15:15:51;98635.94;;;17.03;22.31
69911;BME280;63555;49.920;17.868;2023-03-18T15:21:03;98648.75;;;17.42;21.79
69911;BME280;63555;49.920;17.868;2023-03-18T15:26:18;98638.91;;;18.17;21.51
69911;BME280;63555;49.920;17.868;2023-03-18T15:31:42;98629.69;;;18.60;21.24
69911;BME280;63555;49.920;17.868;2023-03-18T15:36:53;98627.88;;;18.69;21.25
69911;BME280;63555;49.920;17.868;2023-03-18T15:41:54;98645.41;;;18.06;21.66
69911;BME280;63555;49.920;17.868;2023-03-18T15:47:11;98647.91;;;16.99;22.50
69911;BME280;63555;49.920;17.868;2023-03-18T15:52:13;98643.31;;;15.96;23.47
69911;BME280;63555;49.920;17.868;2023-03-18T15:57:25;98660.25;;;14.95;24.39
69911;BME280;63555;49.920;17.868;2023-03-18T16:02:28;98660.69;;;14.05;25.46
69911;BME280;63555;49.920;17.868;2023-03-18T16:07:29;98671.50;;;13.44;25.90
69911;BME280;63555;49.920;17.868;2023-03-18T16:12:33;98666.47;;;12.80;26.38
69911;BME280;63555;49.920;17.868;2023-03-18T16:17:34;98670.22;;;12.26;27.38
69911;BME280;63555;49.920;17.868;2023-03-18T16:22:35;98676.16;;;11.75;27.70
69911;BME280;63555;49.920;17.868;2023-03-18T16:27:37;98679.63;;;11.33;28.43
69911;BME280;63555;49.920;17.868;2023-03-18T16:32:38;98680.00;;;10.95;29.17
69911;BME280;63555;49.920;17.868;2023-03-18T16:37:39;98683.44;;;10.62;29.58
69911;BME280;63555;49.920;17.868;2023-03-18T16:42:39;98683.13;;;10.31;29.90
69911;BME280;63555;49.920;17.868;2023-03-18T16:47:42;98695.94;;;10.01;30.42
69911;BME280;63555;49.920;17.868;2023-03-18T16:52:44;98694.16;;;9.77;30.73
69911;BME280;63555;49.920;17.868;2023-03-18T16:57:48;98695.72;;;9.56;31.26
69911;BME280;63555;49.920;17.868;2023-03-18T17:02:51;98705.38;;;9.32;31.59
69911;BME280;63555;49.920;17.868;2023-03-18T17:07:52;98714.78;;;9.10;32.03
69911;BME280;63555;49.920;17.868;2023-03-18T17:13:00;98705.34;;;8.95;32.61
69911;BME280;63555;49.920;17.868;2023-03-18T17:18:06;98714.28;;;8.80;33.28
69911;BME280;63555;49.920;17.868;2023-03-18T17:23:24;98714.69;;;8.61;33.38
69911;BME280;63555;49.920;17.868;2023-03-18T17:28:49;98710.38;;;8.47;33.19
69911;BME280;63555;49.920;17.868;2023-03-18T17:33:48;98710.47;;;8.33;33.38
69911;BME280;63555;49.920;17.868;2023-03-18T17:38:49;98711.78;;;8.26;34.19
69911;BME280;63555;49.920;17.868;2023-03-18T17:43:55;98710.81;;;8.14;34.10
69911;BME280;63555;49.920;17.868;2023-03-18T17:48:55;98718.25;;;8.08;34.78
69911;BME280;63555;49.920;17.868;2023-03-18T17:53:58;98720.66;;;7.98;34.79
69911;BME280;63555;49.920;17.868;2023-03-18T17:58:59;98717.09;;;7.99;35.12
69911;BME280;63555;49.920;17.868;2023-03-18T18:03:59;98714.97;;;7.91;35.75
69911;BME280;63555;49.920;17.868;2023-03-18T18:09:00;98718.94;;;7.84;35.86
69911;BME280;63555;49.920;17.868;2023-03-18T18:19:11;98714.28;;;7.61;36.09
69911;BME280;63555;49.920;17.868;2023-03-18T18:24:22;98726.13;;;7.54;35.81
69911;BME280;63555;49.920;17.868;2023-03-18T18:29:25;98718.66;;;7.48;36.14
69911;BME280;63555;49.920;17.868;2023-03-18T18:34:27;98719.88;;;7.42;36.56
69911;BME280;63555;49.920;17.868;2023-03-18T18:39:27;98721.50;;;7.30;37.08
69911;BME280;63555;49.920;17.868;2023-03-18T18:44:28;98723.84;;;7.21;37.38
69911;BME280;63555;49.920;17.868;2023-03-18T18:49:28;98732.56;;;7.21;37.05
69911;BME280;63555;49.920;17.868;2023-03-18T18:54:28;98729.19;;;7.19;37.68
69911;BME280;63555;49.920;17.868;2023-03-18T18:59:29;98733.72;;;7.03;37.35
69911;BME280;63555;49.920;17.868;2023-03-18T19:04:32;98738.81;;;6.76;38.44
69911;BME280;63555;49.920;17.868;2023-03-18T19:09:33;98739.72;;;6.47;38.44
69911;BME280;63555;49.920;17.868;2023-03-18T19:14:34;98738.88;;;6.32;38.70
69911;BME280;63555;49.920;17.868;2023-03-18T19:19:34;98741.00;;;6.25;39.45
69911;BME280;63555;49.920;17.868;2023-03-18T19:24:35;98744.38;;;6.27;39.13
69911;BME280;63555;49.920;17.868;2023-03-18T19:29:36;98733.44;;;6.35;39.40
69911;BME280;63555;49.920;17.868;2023-03-18T19:34:37;98738.31;;;6.41;39.17
69911;BME280;63555;49.920;17.868;2023-03-18T19:39:37;98736.19;;;6.48;39.27
69911;BME280;63555;49.920;17.868;2023-03-18T19:44:38;98734.50;;;6.47;39.19
69911;BME280;63555;49.920;17.868;2023-03-18T19:49:38;98738.13;;;6.44;39.60
69911;BME280;63555;49.920;17.868;2023-03-18T19:54:39;98735.69;;;6.41;39.47
69911;BME280;63555;49.920;17.868;2023-03-18T19:59:40;98749.03;;;6.22;40.28
69911;BME280;63555;49.920;17.868;2023-03-18T20:04:42;98738.69;;;5.89;40.82
69911;BME280;63555;49.920;17.868;2023-03-18T20:09:42;98747.66;;;5.54;41.37
69911;BME280;63555;49.920;17.868;2023-03-18T20:14:44;98747.72;;;5.21;42.03
69911;BME280;63555;49.920;17.868;2023-03-18T20:19:44;98754.31;;;4.95;42.78
69911;BME280;63555;49.920;17.868;2023-03-18T20:24:46;98752.53;;;4.79;42.86
69911;BME280;63555;49.920;17.868;2023-03-18T20:29:46;98758.53;;;4.64;42.96
69911;BME280;63555;49.920;17.868;2023-03-18T20:34:47;98752.72;;;4.42;43.16
69911;BME280;63555;49.920;17.868;2023-03-18T20:39:48;98759.00;;;4.21;43.89
69911;BME280;63555;49.920;17.868;2023-03-18T20:44:49;98755.16;;;3.93;44.68
69911;BME280;63555;49.920;17.868;2023-03-18T20:49:50;98750.84;;;3.56;45.30
69911;BME280;63555;49.920;17.868;2023-03-18T20:54:50;98749.03;;;3.20;45.89
69911;BME280;63555;49.920;17.868;2023-03-18T20:59:51;98744.09;;;2.96;45.96
69911;BME280;63555;49.920;17.868;2023-03-18T21:04:51;98756.09;;;2.79;46.14
69911;BME280;63555;49.920;17.868;2023-03-18T21:09:52;98763.47;;;2.49;46.49
69911;BME280;63555;49.920;17.868;2023-03-18T21:14:53;98759.50;;;2.20;47.09
69911;BME280;63555;49.920;17.868;2023-03-18T21:19:55;98759.53;;;1.99;47.61
69911;BME280;63555;49.920;17.868;2023-03-18T21:24:56;98756.84;;;1.80;47.78
69911;BME280;63555;49.920;17.868;2023-03-18T21:29:57;98756.69;;;1.61;48.76
69911;BME280;63555;49.920;17.868;2023-03-18T21:34:57;98759.19;;;1.42;48.66
69911;BME280;63555;49.920;17.868;2023-03-18T21:39:58;98749.25;;;1.30;49.40
69911;BME280;63555;49.920;17.868;2023-03-18T21:44:58;98745.44;;;1.17;49.72
69911;BME280;63555;49.920;17.868;2023-03-18T21:49:59;98746.75;;;1.05;49.88
69911;BME280;63555;49.920;17.868;2023-03-18T21:54:59;98745.56;;;0.90;50.37
69911;BME280;63555;49.920;17.868;2023-03-18T22:00:00;98746.03;;;0.77;50.66
69911;BME280;63555;49.920;17.868;2023-03-18T22:05:08;98743.84;;;0.66;50.93
69911;BME280;63555;49.920;17.868;2023-03-18T22:10:14;98734.06;;;0.49;51.41
69911;BME280;63555;49.920;17.868;2023-03-18T22:20:24;98742.75;;;0.23;51.90
69911;BME280;63555;49.920;17.868;2023-03-18T22:25:33;98747.53;;;0.11;52.71
69911;BME280;63555;49.920;17.868;2023-03-18T22:30:36;98750.50;;;-0.02;52.74
69911;BME280;63555;49.920;17.868;2023-03-18T22:35:36;98749.19;;;-0.15;53.05
69911;BME280;63555;49.920;17.868;2023-03-18T22:40:39;98754.78;;;-0.27;53.37
69911;BME280;63555;49.920;17.868;2023-03-18T22:45:40;98755.16;;;-0.39;53.63
69911;BME280;63555;49.920;17.868;2023-03-18T22:50:41;98751.13;;;-0.48;53.85
69911;BME280;63555;49.920;17.868;2023-03-18T22:55:41;98752.22;;;-0.55;53.99
69911;BME280;63555;49.920;17.868;2023-03-18T23:00:43;98751.38;;;-0.55;54.19
69911;BME280;63555;49.920;17.868;2023-03-18T23:05:49;98748.19;;;-0.37;54.67
69911;BME280;63555;49.920;17.868;2023-03-18T23:10:51;98747.09;;;-0.30;54.57
69911;BME280;63555;49.920;17.868;2023-03-18T23:15:52;98754.88;;;-0.30;54.80
69911;BME280;63555;49.920;17.868;2023-03-18T23:20:53;98759.22;;;-0.30;55.24
69911;BME280;63555;49.920;17.868;2023-03-18T23:25:53;98761.91;;;-0.34;55.42
69911;BME280;63555;49.920;17.868;2023-03-18T23:30:53;98758.56;;;-0.37;55.15
69911;BME280;63555;49.920;17.868;2023-03-18T23:35:54;98760.53;;;-0.45;55.83
69911;BME280;63555;49.920;17.868;2023-03-18T23:40:54;98750.34;;;-0.50;55.69
69911;BME280;63555;49.920;17.868;2023-03-18T23:45:54;98746.19;;;-0.55;56.21
69911;BME280;63555;49.920;17.868;2023-03-18T23:50:55;98748.91;;;-0.60;56.52
69911;BME280;63555;49.920;17.868;2023-03-18T23:55:55;98750.81;;;-0.65;56.56
